Terminal Aerodrome Forecast
Issued by NWS Tampa Bay Area, FL

Home | Current Version | Previous Version | Text Only | Print | Product List | Glossary On
Versions: 1 2 3 4 5 6 7 8 9 10 11 12 13 14 15 16 17 18 19 20 21 22 23 24 25 26 27 28
000
FTUS42 KTBW 191125
TAFTPA
TAF
KTPA 191125Z 1912/2012 VRB03KT P6SM FEW030 SCT250
     FM191500 VRB03KT P6SM VCTS SCT035CB SCT250
     FM191800 26004KT P6SM FEW035 SCT060
     FM200100 34004KT P6SM SCT200=

USA.gov is the U.S. government's official web portal to all federal, state and local government web resources and services.